createdAt,value
2023-09-08T00:00:02.443Z,0.00
2023-09-08T00:05:01.758Z,0.00
2023-09-08T00:10:02.039Z,0.00
2023-09-08T00:15:02.333Z,0.00
2023-09-08T00:20:01.570Z,0.00
2023-09-08T00:24:58.825Z,0.00
2023-09-08T00:29:59.059Z,0.00
2023-09-08T00:34:59.335Z,0.00
2023-09-08T00:39:56.579Z,0.00
2023-09-08T00:44:55.820Z,0.00
2023-09-08T00:49:56.073Z,0.00
2023-09-08T00:54:55.328Z,0.00
2023-09-08T00:59:53.597Z,0.00
2023-09-08T01:04:52.899Z,0.00
2023-09-08T01:09:52.209Z,0.00
2023-09-08T01:14:51.325Z,0.00
2023-09-08T01:19:50.573Z,0.00
2023-09-08T01:24:50.926Z,0.00
2023-09-08T01:29:50.987Z,0.00
2023-09-08T01:34:50.270Z,0.00
2023-09-08T01:39:48.509Z,0.00
2023-09-08T01:44:47.775Z,0.00
2023-09-08T01:49:46.056Z,0.00
2023-09-08T01:54:46.208Z,0.00
2023-09-08T01:59:44.449Z,0.00
2023-09-08T02:04:43.839Z,0.00
2023-09-08T02:09:42.884Z,0.00
2023-09-08T02:14:44.185Z,0.00
2023-09-08T02:19:42.613Z,0.00
2023-09-08T02:24:41.703Z,0.00
2023-09-08T02:29:39.920Z,0.00
2023-09-08T02:34:39.195Z,0.00
2023-09-08T02:39:40.539Z,0.00
2023-09-08T02:44:37.781Z,0.00
2023-09-08T02:49:37.118Z,0.00
2023-09-08T02:54:37.396Z,0.00
2023-09-08T02:59:37.625Z,0.00
2023-09-08T03:04:40.008Z,0.00
2023-09-08T03:09:34.064Z,0.00
2023-09-08T03:14:33.530Z,0.00
2023-09-08T03:19:32.633Z,0.00
2023-09-08T03:24:33.867Z,0.00
2023-09-08T03:29:31.124Z,0.00
2023-09-08T03:34:30.511Z,0.00
2023-09-08T03:39:30.580Z,0.00
2023-09-08T03:44:29.874Z,0.00
2023-09-08T03:49:30.189Z,0.00
2023-09-08T03:54:27.431Z,0.00
2023-09-08T03:59:26.708Z,0.00
2023-09-08T04:04:26.995Z,0.00
2023-09-08T04:09:27.239Z,0.00
2023-09-08T04:14:25.499Z,0.00
2023-09-08T04:19:24.755Z,0.00
2023-09-08T04:24:23.063Z,0.00
2023-09-08T04:29:23.200Z,0.00
2023-09-08T04:34:21.471Z,0.00
2023-09-08T04:39:21.744Z,0.00
2023-09-08T04:44:21.052Z,0.00
2023-09-08T04:49:19.322Z,0.00
2023-09-08T04:54:19.642Z,0.00
2023-09-08T04:59:17.953Z,0.00
2023-09-08T05:04:18.261Z,0.00
2023-09-08T05:09:18.566Z,0.00
2023-09-08T05:14:15.900Z,0.00
2023-09-08T05:19:15.983Z,0.00
2023-09-08T05:24:14.280Z,0.00
2023-09-08T05:29:13.558Z,0.00
2023-09-08T05:34:12.780Z,0.00
2023-09-08T05:39:14.054Z,0.00
2023-09-08T05:44:11.339Z,0.00
2023-09-08T05:49:11.655Z,0.00
2023-09-08T05:54:10.904Z,0.00
2023-09-08T05:59:10.183Z,0.00
2023-09-08T06:04:10.514Z,0.00
2023-09-08T06:09:09.614Z,0.00
2023-09-08T06:14:06.909Z,0.00
2023-09-08T06:19:06.184Z,0.00
2023-09-08T06:24:05.483Z,0.00
2023-09-08T06:29:05.643Z,0.00
2023-09-08T06:34:05.081Z,0.00
2023-09-08T06:39:03.087Z,0.00
2023-09-08T06:44:02.350Z,0.00
2023-09-08T06:49:05.214Z,0.00
2023-09-08T06:54:01.841Z,0.00
2023-09-08T06:59:00.089Z,0.00
2023-09-08T07:04:01.497Z,0.00
2023-09-08T07:08:58.681Z,0.00
2023-09-08T07:13:58.965Z,0.00
2023-09-08T07:18:57.299Z,0.00
2023-09-08T07:23:57.532Z,0.00
2023-09-08T07:28:55.815Z,0.00
2023-09-08T07:33:55.085Z,0.00
2023-09-08T07:38:54.489Z,0.00
2023-09-08T07:43:54.674Z,0.00
2023-09-08T07:48:52.744Z,11.25
2023-09-08T07:53:52.091Z,11.25
2023-09-08T07:58:51.261Z,11.25
2023-09-08T08:03:51.605Z,11.25
2023-09-08T08:08:49.754Z,11.25
2023-09-08T08:13:51.036Z,11.25
2023-09-08T08:18:51.428Z,11.25
2023-09-08T08:23:48.573Z,11.25
2023-09-08T08:28:46.877Z,11.25
2023-09-08T08:33:47.217Z,11.25
2023-09-08T08:38:45.287Z,11.25
2023-09-08T08:43:45.574Z,11.25
2023-09-08T08:48:44.711Z,11.25
2023-09-08T08:53:42.998Z,11.25
2023-09-08T08:58:42.250Z,11.25
2023-09-08T09:03:41.567Z,11.25
2023-09-08T09:08:40.683Z,11.25
2023-09-08T09:13:39.926Z,11.25
2023-09-08T09:18:40.240Z,11.25
2023-09-08T09:23:38.473Z,11.25
2023-09-08T09:28:39.766Z,11.25
2023-09-08T09:33:38.109Z,11.25
2023-09-08T09:38:38.521Z,11.25
2023-09-08T09:43:35.358Z,11.25
2023-09-08T09:48:35.902Z,11.25
2023-09-08T09:53:34.883Z,11.25
2023-09-08T09:58:34.348Z,11.25
2023-09-08T10:03:34.272Z,11.25
2023-09-08T10:08:32.556Z,11.25
2023-09-08T10:13:30.798Z,11.25
2023-09-08T10:18:31.217Z,11.25
2023-09-08T10:23:29.117Z,11.25
2023-09-08T10:28:28.400Z,11.25
2023-09-08T10:33:27.695Z,11.25
2023-09-08T10:38:27.982Z,11.25
2023-09-08T10:43:28.314Z,11.25
2023-09-08T10:48:25.594Z,11.25
2023-09-08T10:53:24.840Z,11.25
2023-09-08T10:58:26.772Z,11.25
2023-09-08T11:03:25.448Z,11.25
2023-09-08T11:08:22.601Z,11.25
2023-09-08T11:13:21.838Z,11.25
2023-09-08T11:18:21.167Z,11.25
2023-09-08T11:23:20.251Z,11.25
2023-09-08T11:28:20.635Z,11.25
2023-09-08T11:33:19.713Z,11.25
2023-09-08T11:38:17.973Z,11.25
2023-09-08T11:43:17.222Z,11.25
2023-09-08T11:48:16.501Z,11.25
2023-09-08T11:53:16.709Z,11.25
2023-09-08T11:58:16.021Z,11.25
2023-09-08T12:03:16.301Z,11.25
2023-09-08T12:08:13.540Z,11.25
2023-09-08T12:13:13.369Z,11.25
2023-09-08T12:18:12.059Z,11.25
2023-09-08T12:23:13.315Z,11.25
2023-09-08T12:28:10.670Z,11.25
2023-09-08T12:33:10.929Z,11.25
2023-09-08T12:38:09.186Z,11.25
2023-09-08T12:43:24.905Z,11.25
2023-09-08T12:48:08.650Z,11.25
2023-09-08T12:53:07.874Z,11.25
2023-09-08T12:58:06.155Z,11.25
2023-09-08T13:03:07.766Z,11.25
2023-09-08T13:08:04.914Z,11.25
2023-09-08T13:13:04.216Z,11.25
2023-09-08T13:18:06.975Z,11.25
2023-09-08T13:23:03.800Z,11.25
2023-09-08T13:28:03.080Z,11.25
2023-09-08T13:33:01.610Z,11.25
2023-09-08T13:38:01.510Z,11.25
2023-09-08T13:42:59.782Z,11.25
2023-09-08T13:48:01.222Z,11.25
2023-09-08T13:52:59.274Z,11.25
2023-09-08T13:58:01.424Z,11.25
2023-09-08T14:02:59.027Z,11.25
2023-09-08T14:08:06.068Z,11.25
2023-09-08T14:12:57.528Z,11.25
2023-09-08T14:17:54.668Z,11.25
2023-09-08T14:22:54.884Z,11.25
2023-09-08T14:27:53.123Z,11.25
2023-09-08T14:32:53.388Z,11.25
2023-09-08T14:37:50.649Z,11.25
2023-09-08T14:42:53.916Z,11.25
2023-09-08T14:47:52.169Z,11.25
2023-09-08T14:52:50.416Z,16.88
2023-09-08T14:57:48.622Z,16.88
2023-09-08T15:02:47.801Z,16.88
2023-09-08T15:07:46.961Z,16.88
2023-09-08T15:12:46.316Z,16.88
2023-09-08T15:17:45.345Z,16.88
2023-09-08T15:22:44.834Z,16.88
2023-09-08T15:27:47.090Z,22.50
2023-09-08T15:32:44.230Z,22.50
2023-09-08T15:37:43.560Z,22.50
2023-09-08T15:42:41.698Z,28.12
2023-09-08T15:47:40.816Z,28.12
2023-09-08T15:52:41.199Z,28.12
2023-09-08T15:57:39.365Z,28.12
2023-09-08T16:02:38.456Z,28.12
2023-09-08T16:07:37.663Z,28.12
2023-09-08T16:12:36.925Z,28.12
2023-09-08T16:17:36.145Z,28.12
2023-09-08T16:22:34.305Z,33.75
2023-09-08T16:27:35.504Z,33.75
2023-09-08T16:32:33.721Z,33.75
2023-09-08T16:37:34.031Z,39.38
2023-09-08T16:42:34.288Z,39.38
2023-09-08T16:47:31.639Z,39.38
2023-09-08T16:52:31.767Z,33.75
2023-09-08T16:57:29.996Z,33.75
2023-09-08T17:02:29.230Z,28.12
2023-09-08T17:07:28.533Z,22.50
2023-09-08T17:12:28.804Z,16.88
2023-09-08T17:17:29.054Z,5.62
2023-09-08T17:22:26.270Z,0.00
2023-09-08T17:27:26.709Z,0.00
2023-09-08T17:32:24.943Z,0.00
2023-09-08T17:37:24.090Z,0.00
2023-09-08T17:42:24.042Z,0.00
2023-09-08T17:47:23.408Z,0.00
2023-09-08T17:52:21.565Z,0.00
2023-09-08T17:57:24.335Z,0.00
2023-09-08T18:02:19.989Z,0.00
2023-09-08T18:07:19.294Z,0.00
2023-09-08T18:12:18.488Z,0.00
2023-09-08T18:17:18.693Z,0.00
2023-09-08T18:22:16.860Z,0.00
2023-09-08T18:27:17.907Z,0.00
2023-09-08T18:32:14.315Z,0.00
2023-09-08T18:37:15.551Z,0.00
2023-09-08T18:42:15.549Z,0.00
2023-09-08T18:47:13.045Z,0.00
2023-09-08T18:52:13.314Z,0.00
2023-09-08T18:57:12.579Z,0.00
2023-09-08T19:02:14.541Z,0.00
2023-09-08T19:07:10.015Z,0.00
2023-09-08T19:12:11.038Z,0.00
2023-09-08T19:17:09.114Z,0.00
2023-09-08T19:22:08.727Z,0.00
2023-09-08T19:27:06.862Z,0.00
2023-09-08T19:32:07.131Z,0.00
2023-09-08T19:37:06.397Z,0.00
2023-09-08T19:42:04.645Z,0.00
2023-09-08T19:47:03.900Z,0.00
2023-09-08T19:52:03.009Z,0.00
2023-09-08T19:57:02.429Z,0.00
2023-09-08T20:02:02.746Z,0.00
2023-09-08T20:07:00.816Z,0.00
2023-09-08T20:12:00.977Z,0.00
2023-09-08T20:17:00.298Z,0.00
2023-09-08T20:22:02.472Z,0.00
2023-09-08T20:26:58.847Z,0.00
2023-09-08T20:31:57.060Z,0.00
2023-09-08T20:36:57.294Z,0.00
2023-09-08T20:41:55.516Z,0.00
2023-09-08T20:46:54.703Z,0.00
2023-09-08T20:51:53.915Z,0.00
2023-09-08T20:56:55.196Z,0.00
2023-09-08T21:01:53.376Z,0.00
2023-09-08T21:06:51.304Z,0.00
2023-09-08T21:11:51.343Z,0.00
2023-09-08T21:16:50.424Z,0.00
2023-09-08T21:21:48.855Z,0.00
2023-09-08T21:26:51.023Z,0.00
2023-09-08T21:31:47.175Z,0.00
2023-09-08T21:36:47.239Z,0.00
2023-09-08T21:41:46.523Z,0.00
2023-09-08T21:46:44.771Z,0.00
2023-09-08T21:51:44.061Z,0.00
2023-09-08T21:56:43.309Z,0.00
2023-09-08T22:01:42.610Z,0.00
2023-09-08T22:06:41.873Z,0.00
2023-09-08T22:11:41.133Z,0.00
2023-09-08T22:16:41.426Z,0.00
2023-09-08T22:21:40.716Z,0.00
2023-09-08T22:26:38.954Z,0.00
2023-09-08T22:31:38.241Z,0.00
2023-09-08T22:36:37.488Z,0.00
2023-09-08T22:41:36.763Z,0.00
2023-09-08T22:46:37.132Z,0.00
2023-09-08T22:51:35.201Z,0.00
2023-09-08T22:56:34.389Z,0.00
2023-09-08T23:01:34.784Z,0.00
2023-09-08T23:06:33.831Z,0.00
2023-09-08T23:11:32.088Z,0.00
2023-09-08T23:16:31.374Z,0.00
2023-09-08T23:21:31.495Z,0.00
2023-09-08T23:26:29.716Z,0.00
2023-09-08T23:31:29.124Z,0.00
2023-09-08T23:36:28.262Z,0.00
2023-09-08T23:41:27.600Z,0.00
2023-09-08T23:46:28.933Z,0.00
2023-09-08T23:51:26.204Z,0.00
2023-09-08T23:56:25.505Z,0.00
